createdAt,value
2018-05-03T00:00:39.218Z,1.20
2018-05-03T00:03:07.084Z,1.53
2018-05-03T00:05:34.952Z,1.70
2018-05-03T00:08:02.821Z,1.97
2018-05-03T00:10:30.688Z,1.70
2018-05-03T00:12:58.399Z,1.70
2018-05-03T00:15:26.215Z,1.57
2018-05-03T00:17:53.937Z,1.40
2018-05-03T00:20:21.743Z,1.70
2018-05-03T00:22:49.616Z,1.90
2018-05-03T00:25:17.480Z,2.00
2018-05-03T00:27:45.223Z,1.50
2018-05-03T00:30:13.006Z,1.47
2018-05-03T00:32:40.771Z,1.40
2018-05-03T00:35:08.641Z,2.00
2018-05-03T00:37:36.339Z,1.73
2018-05-03T00:40:04.167Z,1.90
2018-05-03T00:42:31.870Z,2.17
2018-05-03T00:44:59.694Z,1.70
2018-05-03T00:47:27.464Z,1.60
2018-05-03T00:49:55.173Z,1.97
2018-05-03T00:52:22.992Z,1.40
2018-05-03T00:54:50.753Z,1.93
2018-05-03T00:57:18.619Z,1.93
2018-05-03T00:59:46.386Z,1.70
2018-05-03T01:02:14.047Z,1.70
2018-05-03T01:04:41.700Z,2.10
2018-05-03T01:07:09.476Z,2.27
2018-05-03T01:09:37.333Z,1.90
2018-05-03T01:12:05.003Z,1.80
2018-05-03T01:14:32.766Z,2.10
2018-05-03T01:17:00.481Z,2.50
2018-05-03T01:19:28.397Z,2.10
2018-05-03T01:21:56.213Z,2.00
2018-05-03T01:24:23.925Z,2.77
2018-05-03T01:26:51.795Z,2.57
2018-05-03T01:29:19.767Z,2.23
2018-05-03T01:31:47.535Z,1.80
2018-05-03T01:34:15.379Z,1.93
2018-05-03T01:36:43.162Z,1.63
2018-05-03T01:39:11.001Z,1.93
2018-05-03T01:41:38.746Z,2.00
2018-05-03T01:44:06.562Z,1.90
2018-05-03T01:46:34.578Z,1.73
2018-05-03T01:49:02.297Z,2.13
2018-05-03T01:51:30.056Z,2.20
2018-05-03T01:53:57.905Z,1.90
2018-05-03T01:56:25.599Z,2.90
2018-05-03T01:58:53.451Z,1.67
2018-05-03T02:01:21.417Z,1.80
2018-05-03T02:03:49.190Z,2.57
2018-05-03T02:06:16.948Z,2.67
2018-05-03T02:08:44.678Z,1.97
2018-05-03T02:11:12.421Z,2.30
2018-05-03T02:13:40.242Z,2.50
2018-05-03T02:16:08.006Z,2.27
2018-05-03T02:18:35.745Z,2.50
2018-05-03T02:21:03.488Z,2.33
2018-05-03T02:23:31.190Z,2.30
2018-05-03T02:25:59.062Z,1.93
2018-05-03T02:28:26.894Z,2.00
2018-05-03T02:30:54.594Z,2.33
2018-05-03T02:33:22.251Z,1.80
2018-05-03T02:35:50.112Z,2.00
2018-05-03T02:38:17.979Z,2.17
2018-05-03T02:40:45.694Z,2.47
2018-05-03T02:43:13.517Z,2.00
2018-05-03T02:45:41.276Z,1.93
2018-05-03T02:48:09.149Z,2.03
2018-05-03T02:50:37.019Z,1.90
2018-05-03T02:53:04.779Z,2.53
2018-05-03T02:55:32.544Z,2.00
2018-05-03T02:58:17.717Z,2.33
2018-05-03T03:01:03.096Z,2.30
2018-05-03T03:03:48.221Z,2.13
2018-05-03T03:06:33.609Z,1.90
2018-05-03T03:09:18.925Z,1.97
2018-05-03T03:12:02.351Z,2.13
2018-05-03T03:14:47.829Z,2.00
2018-05-03T03:21:01.133Z,2.10
2018-05-03T03:23:46.403Z,2.10
2018-05-03T03:29:57.865Z,2.30
2018-05-03T03:32:37.521Z,1.90
2018-05-03T03:38:37.346Z,1.90
2018-05-03T03:41:17.091Z,2.37
2018-05-03T03:43:56.631Z,2.10
2018-05-03T03:46:24.293Z,2.43
2018-05-03T03:48:52.163Z,2.40
2018-05-03T03:51:20.027Z,2.70
2018-05-03T03:53:47.896Z,2.23
2018-05-03T03:56:15.559Z,2.10
2018-05-03T03:58:43.317Z,2.20
2018-05-03T04:01:11.087Z,2.00
2018-05-03T04:03:38.896Z,2.63
2018-05-03T04:06:06.716Z,2.50
2018-05-03T04:08:34.584Z,2.53
2018-05-03T04:11:02.246Z,2.23
2018-05-03T04:13:30.114Z,2.27
2018-05-03T04:15:57.779Z,2.07
2018-05-03T04:18:37.625Z,2.00
2018-05-03T04:21:17.163Z,2.60
2018-05-03T04:24:11.548Z,2.53
2018-05-03T04:26:39.421Z,2.60
2018-05-03T04:29:07.191Z,3.57
2018-05-03T04:31:34.947Z,2.30
2018-05-03T04:34:02.762Z,3.07
2018-05-03T04:36:30.579Z,2.10
2018-05-03T04:38:58.230Z,2.53
2018-05-03T04:41:25.966Z,2.70
2018-05-03T04:43:53.703Z,2.87
2018-05-03T04:46:21.397Z,3.00
2018-05-03T04:48:49.087Z,2.70
2018-05-03T04:51:16.932Z,2.63
2018-05-03T04:53:44.694Z,2.90
2018-05-03T04:56:12.388Z,2.80
2018-05-03T04:58:40.149Z,3.03
2018-05-03T05:01:07.920Z,2.87
2018-05-03T05:03:35.766Z,2.20
2018-05-03T05:06:03.442Z,3.03
2018-05-03T05:08:31.210Z,2.53
2018-05-03T05:10:58.933Z,3.30
2018-05-03T05:13:26.738Z,2.47
2018-05-03T05:15:54.567Z,3.30
2018-05-03T05:18:22.369Z,2.77
2018-05-03T05:20:50.237Z,2.63
2018-05-03T05:23:18.001Z,2.70
2018-05-03T05:25:45.868Z,2.90
2018-05-03T05:28:13.530Z,3.50
2018-05-03T05:30:41.406Z,3.50
2018-05-03T05:33:09.270Z,2.63
2018-05-03T05:35:37.134Z,3.57
2018-05-03T05:38:04.796Z,3.40
2018-05-03T05:40:32.660Z,3.63
2018-05-03T05:43:00.529Z,2.93
2018-05-03T05:45:28.339Z,3.37
2018-05-03T05:47:56.158Z,3.67
2018-05-03T05:50:23.976Z,3.00
2018-05-03T05:52:51.789Z,4.53
2018-05-03T05:55:19.656Z,3.53
2018-05-03T05:57:47.472Z,3.40
2018-05-03T06:00:15.341Z,3.20
2018-05-03T06:02:43.052Z,4.00
2018-05-03T06:05:10.816Z,3.67
2018-05-03T06:07:38.470Z,4.67
2018-05-03T06:10:06.345Z,4.33
2018-05-03T06:12:34.217Z,4.00
2018-05-03T06:15:02.082Z,3.87
2018-05-03T06:17:29.806Z,3.60
2018-05-03T06:19:57.550Z,3.90
2018-05-03T06:22:25.373Z,3.73
2018-05-03T06:24:53.154Z,4.30
2018-05-03T06:27:20.898Z,3.80
2018-05-03T06:29:48.571Z,5.30
2018-05-03T06:32:16.432Z,5.03
2018-05-03T06:34:44.297Z,4.10
2018-05-03T06:37:12.260Z,4.23
2018-05-03T06:39:40.214Z,4.77
2018-05-03T06:42:08.239Z,4.43
2018-05-03T06:44:36.187Z,5.43
2018-05-03T06:47:04.048Z,5.77
2018-05-03T06:49:32.074Z,4.40
2018-05-03T06:51:59.887Z,5.57
2018-05-03T06:54:27.707Z,5.57
2018-05-03T06:56:55.515Z,5.30
2018-05-03T06:59:23.339Z,5.43
2018-05-03T07:01:51.142Z,5.67
2018-05-03T07:04:19.014Z,5.93
2018-05-03T07:06:46.674Z,5.90
2018-05-03T07:09:14.437Z,6.23
2018-05-03T07:11:42.405Z,6.70
2018-05-03T07:14:10.169Z,5.93
2018-05-03T07:16:37.985Z,6.57
2018-05-03T07:19:05.800Z,7.33
2018-05-03T07:21:33.565Z,6.30
2018-05-03T07:24:01.331Z,5.53
2018-05-03T07:26:29.093Z,6.47
2018-05-03T07:28:56.861Z,6.57
2018-05-03T07:31:24.827Z,6.80
2018-05-03T07:33:52.483Z,6.10
2018-05-03T07:36:20.253Z,6.30
2018-05-03T07:38:47.982Z,6.47
2018-05-03T07:41:15.782Z,6.23
2018-05-03T07:43:43.490Z,5.90
2018-05-03T07:46:11.204Z,5.93
2018-05-03T07:48:38.927Z,6.60
2018-05-03T07:51:06.632Z,6.60
2018-05-03T07:53:34.400Z,5.57
2018-05-03T07:56:02.367Z,5.30
2018-05-03T07:58:30.300Z,5.67
2018-05-03T08:00:57.999Z,5.27
2018-05-03T08:03:25.769Z,4.63
2018-05-03T08:05:53.432Z,5.50
2018-05-03T08:08:21.193Z,4.47
2018-05-03T08:10:49.061Z,4.37
2018-05-03T08:13:16.793Z,4.40
2018-05-03T08:15:44.588Z,3.93
2018-05-03T08:18:12.403Z,4.60
2018-05-03T08:20:40.170Z,4.07
2018-05-03T08:23:07.983Z,3.73
2018-05-03T08:25:35.850Z,3.60
2018-05-03T08:28:03.616Z,3.93
2018-05-03T08:30:31.484Z,4.17
2018-05-03T08:32:59.141Z,3.40
2018-05-03T08:35:26.906Z,3.70
2018-05-03T08:37:54.573Z,3.60
2018-05-03T08:40:22.438Z,2.60
2018-05-03T08:42:50.508Z,3.83
2018-05-03T08:45:18.374Z,3.27
2018-05-03T08:47:46.082Z,3.93
2018-05-03T08:50:13.904Z,3.97
2018-05-03T08:52:41.667Z,2.77
2018-05-03T08:55:09.428Z,3.00
2018-05-03T08:57:37.196Z,3.30
2018-05-03T09:00:05.211Z,2.67
2018-05-03T09:02:32.935Z,2.50
2018-05-03T09:05:00.603Z,2.67
2018-05-03T09:07:28.473Z,2.70
2018-05-03T09:09:56.280Z,3.20
2018-05-03T09:12:23.989Z,3.00
2018-05-03T09:14:51.650Z,3.00
2018-05-03T09:17:19.415Z,2.77
2018-05-03T09:19:47.180Z,2.43
2018-05-03T09:22:15.046Z,2.77
2018-05-03T09:24:42.805Z,2.60
2018-05-03T09:27:10.577Z,2.73
2018-05-03T09:29:38.295Z,2.80
2018-05-03T09:32:06.058Z,2.23
2018-05-03T09:34:33.870Z,2.57
2018-05-03T09:37:01.749Z,2.70
2018-05-03T09:39:29.500Z,2.47
2018-05-03T09:41:57.366Z,2.50
2018-05-03T09:44:25.036Z,2.90
2018-05-03T09:46:52.999Z,2.60
2018-05-03T09:49:20.761Z,2.93
2018-05-03T09:51:48.493Z,2.70
2018-05-03T09:54:16.260Z,2.40
2018-05-03T09:56:44.056Z,2.50
2018-05-03T09:59:11.819Z,2.33
2018-05-03T10:01:39.585Z,2.60
2018-05-03T10:04:07.452Z,2.07
2018-05-03T10:06:35.216Z,2.50
2018-05-03T10:09:03.082Z,2.23
2018-05-03T10:11:30.845Z,2.50
2018-05-03T10:13:58.715Z,3.00
2018-05-03T10:16:26.480Z,2.67
2018-05-03T10:18:54.142Z,3.33
2018-05-03T10:21:21.905Z,2.53
2018-05-03T10:23:49.634Z,2.97
2018-05-03T10:26:17.435Z,2.73
2018-05-03T10:28:45.403Z,3.27
2018-05-03T10:31:13.169Z,2.60
2018-05-03T10:33:40.783Z,3.17
2018-05-03T10:36:08.804Z,2.70
2018-05-03T10:38:36.461Z,3.17
2018-05-03T10:41:04.230Z,2.80
2018-05-03T10:43:32.085Z,3.00
2018-05-03T10:45:59.813Z,3.33
2018-05-03T10:48:27.621Z,2.73
2018-05-03T10:50:55.387Z,2.70
2018-05-03T10:53:23.050Z,2.50
2018-05-03T10:55:50.712Z,2.00
2018-05-03T10:58:18.436Z,2.00
2018-05-03T11:00:46.132Z,2.50
2018-05-03T11:03:14.003Z,2.97
2018-05-03T11:05:41.973Z,2.63
2018-05-03T11:08:09.750Z,3.47
2018-05-03T11:10:37.506Z,2.93
2018-05-03T11:13:05.266Z,2.57
2018-05-03T11:15:32.990Z,3.33
2018-05-03T11:18:00.689Z,2.40
2018-05-03T11:20:28.354Z,2.03
2018-05-03T11:22:56.066Z,2.73
2018-05-03T11:25:23.985Z,2.90
2018-05-03T11:27:51.750Z,2.23
2018-05-03T11:30:19.493Z,1.90
2018-05-03T11:32:47.279Z,2.10
2018-05-03T11:35:15.254Z,1.80
2018-05-03T11:37:43.321Z,1.60
2018-05-03T11:40:11.085Z,1.47
2018-05-03T11:42:38.765Z,1.80
2018-05-03T11:45:06.511Z,1.77
2018-05-03T11:47:34.166Z,2.17
2018-05-03T11:50:01.939Z,1.83
2018-05-03T11:52:29.801Z,1.90
2018-05-03T11:54:57.570Z,2.10
2018-05-03T11:57:25.426Z,2.40
2018-05-03T11:59:53.100Z,2.93
2018-05-03T12:02:20.904Z,2.50
2018-05-03T12:04:48.528Z,2.17
2018-05-03T12:07:16.290Z,2.90
2018-05-03T12:09:44.158Z,1.90
2018-05-03T12:12:12.009Z,2.20
2018-05-03T12:14:39.787Z,2.80
2018-05-03T12:17:07.489Z,2.30
2018-05-03T12:19:35.316Z,2.50
2018-05-03T12:22:03.080Z,2.23
2018-05-03T12:24:31.018Z,2.80
2018-05-03T12:26:58.715Z,2.17
2018-05-03T12:29:26.374Z,2.43
2018-05-03T12:31:54.138Z,2.60
2018-05-03T12:34:21.903Z,2.70
2018-05-03T12:36:49.670Z,2.40
2018-05-03T12:39:17.533Z,2.73
2018-05-03T12:41:45.303Z,2.70
2018-05-03T12:44:13.066Z,2.60
2018-05-03T12:46:40.828Z,2.90
2018-05-03T12:49:08.596Z,2.80
2018-05-03T12:51:36.253Z,2.60
2018-05-03T12:54:04.019Z,2.80
2018-05-03T12:56:31.784Z,2.70
2018-05-03T12:58:59.557Z,3.07
2018-05-03T13:01:27.519Z,2.23
2018-05-03T13:03:55.386Z,2.53
2018-05-03T13:06:23.151Z,2.10
2018-05-03T13:08:50.915Z,2.87
2018-05-03T13:11:18.678Z,2.57
2018-05-03T13:13:46.341Z,2.67
2018-05-03T13:16:14.211Z,2.63
2018-05-03T13:18:41.869Z,2.17
2018-05-03T13:21:10.611Z,3.13
2018-05-03T13:23:38.477Z,2.67
2018-05-03T13:26:06.180Z,2.70
2018-05-03T13:28:33.913Z,2.60
2018-05-03T13:31:01.653Z,2.63
2018-05-03T13:33:29.468Z,2.30
2018-05-03T13:35:57.110Z,3.00
2018-05-03T13:38:24.909Z,2.50
2018-05-03T13:40:52.671Z,3.00
2018-05-03T13:43:20.435Z,2.40
2018-05-03T13:45:48.302Z,2.37
2018-05-03T13:48:16.064Z,1.93
2018-05-03T13:50:44.036Z,2.37
2018-05-03T13:53:11.689Z,2.60
2018-05-03T13:55:39.456Z,2.57
2018-05-03T13:58:07.125Z,2.63
2018-05-03T14:00:34.790Z,2.30
2018-05-03T14:03:02.601Z,2.60
2018-05-03T14:05:30.419Z,2.00
2018-05-03T14:07:58.286Z,2.70
2018-05-03T14:10:25.946Z,3.23
2018-05-03T14:12:53.782Z,2.33
2018-05-03T14:15:21.477Z,2.40
2018-05-03T14:17:49.345Z,1.57
2018-05-03T14:20:17.006Z,2.30
2018-05-03T14:22:44.712Z,2.13
2018-05-03T14:25:12.432Z,1.73
2018-05-03T14:27:40.096Z,2.00
2018-05-03T14:30:07.861Z,2.07
2018-05-03T14:32:35.626Z,1.70
2018-05-03T14:35:03.392Z,1.93
2018-05-03T14:37:31.213Z,2.20
2018-05-03T14:39:59.021Z,2.03
2018-05-03T14:42:26.787Z,1.60
2018-05-03T14:44:54.451Z,1.80
2018-05-03T14:47:22.343Z,2.47
2018-05-03T14:49:49.978Z,2.30
2018-05-03T14:52:17.847Z,2.00
2018-05-03T14:54:45.810Z,1.93
2018-05-03T14:57:13.472Z,2.20
2018-05-03T14:59:41.339Z,1.40
2018-05-03T15:02:09.106Z,1.90
2018-05-03T15:04:36.867Z,1.80
2018-05-03T15:07:04.592Z,2.40
2018-05-03T15:09:32.397Z,2.07
2018-05-03T15:12:00.366Z,1.53
2018-05-03T15:14:28.233Z,1.80
2018-05-03T15:16:55.960Z,1.63
2018-05-03T15:19:23.659Z,1.60
2018-05-03T15:21:51.410Z,1.47
2018-05-03T15:24:19.127Z,1.10
2018-05-03T15:26:46.850Z,1.80
2018-05-03T15:29:14.614Z,1.90
2018-05-03T15:31:42.379Z,1.77
2018-05-03T15:34:10.146Z,2.10
2018-05-03T15:36:38.005Z,1.73
2018-05-03T15:39:05.982Z,1.70
2018-05-03T15:41:33.637Z,1.43
2018-05-03T15:44:01.411Z,1.93
2018-05-03T15:46:29.479Z,1.80
2018-05-03T15:48:57.143Z,1.40
2018-05-03T15:51:24.904Z,1.37
2018-05-03T15:53:52.641Z,1.40
2018-05-03T15:56:20.388Z,1.60
2018-05-03T15:58:48.099Z,1.20
2018-05-03T16:01:15.860Z,0.87
2018-05-03T16:03:43.515Z,1.20
2018-05-03T16:06:11.276Z,1.37
2018-05-03T16:08:39.051Z,1.47
2018-05-03T16:11:06.918Z,1.50
2018-05-03T16:13:34.682Z,1.77
2018-05-03T16:16:02.446Z,1.80
2018-05-03T16:18:30.211Z,1.90
2018-05-03T16:20:57.987Z,1.63
2018-05-03T16:23:25.638Z,1.13
2018-05-03T16:25:53.505Z,1.83
2018-05-03T16:28:21.168Z,1.40
2018-05-03T16:30:49.034Z,1.50
2018-05-03T16:33:16.694Z,1.40
2018-05-03T16:35:44.557Z,1.20
2018-05-03T16:38:12.224Z,2.00
2018-05-03T16:40:39.953Z,1.30
2018-05-03T16:43:07.756Z,1.40
2018-05-03T16:45:35.481Z,1.20
2018-05-03T16:48:03.283Z,1.13
2018-05-03T16:50:31.048Z,1.07
2018-05-03T16:52:58.916Z,1.33
2018-05-03T16:55:26.640Z,1.00
2018-05-03T16:57:54.443Z,1.27
2018-05-03T17:00:22.208Z,1.87
2018-05-03T17:02:50.018Z,1.40
2018-05-03T17:05:17.945Z,1.40
2018-05-03T17:07:45.876Z,1.00
2018-05-03T17:10:13.678Z,1.40
2018-05-03T17:12:41.543Z,0.93
2018-05-03T17:15:09.308Z,1.17
2018-05-03T17:17:37.071Z,1.57
2018-05-03T17:20:04.785Z,1.47
2018-05-03T17:22:32.556Z,0.93
2018-05-03T17:25:00.363Z,1.30
2018-05-03T17:27:28.231Z,1.10
2018-05-03T17:29:55.996Z,1.30
2018-05-03T17:32:23.824Z,1.10
2018-05-03T17:34:51.627Z,1.67
2018-05-03T17:37:19.392Z,1.30
2018-05-03T17:39:47.157Z,1.40
2018-05-03T17:42:14.912Z,1.53
2018-05-03T17:44:42.787Z,1.13
2018-05-03T17:47:10.451Z,0.90
2018-05-03T17:49:38.112Z,1.40
2018-05-03T17:52:05.979Z,1.13
2018-05-03T17:54:33.829Z,1.00
2018-05-03T17:57:01.568Z,1.50
2018-05-03T17:59:29.374Z,1.10
2018-05-03T18:01:57.101Z,1.63
2018-05-03T18:04:24.800Z,1.50
2018-05-03T18:06:52.671Z,1.53
2018-05-03T18:09:20.534Z,1.30
2018-05-03T18:11:48.243Z,1.20
2018-05-03T18:14:16.064Z,1.27
2018-05-03T18:16:43.828Z,1.00
2018-05-03T18:19:12.412Z,1.40
2018-05-03T18:21:40.279Z,1.50
2018-05-03T18:24:08.155Z,1.30
2018-05-03T18:26:35.910Z,1.30
2018-05-03T18:29:03.675Z,1.27
2018-05-03T18:31:31.441Z,0.90
2018-05-03T18:33:59.166Z,1.20
2018-05-03T18:36:26.907Z,1.57
2018-05-03T18:38:54.674Z,1.40
2018-05-03T18:41:22.395Z,1.33
2018-05-03T18:43:50.267Z,1.63
2018-05-03T18:46:18.130Z,1.50
2018-05-03T18:48:45.840Z,1.13
2018-05-03T18:51:13.660Z,1.20
2018-05-03T18:53:41.629Z,1.20
2018-05-03T18:56:09.494Z,1.20
2018-05-03T18:58:37.157Z,1.40
2018-05-03T19:01:04.985Z,1.20
2018-05-03T19:03:32.779Z,1.50
2018-05-03T19:06:00.550Z,1.20
2018-05-03T19:08:28.310Z,1.67
2018-05-03T19:10:56.082Z,1.63
2018-05-03T19:13:23.754Z,1.77
2018-05-03T19:15:51.506Z,2.00
2018-05-03T19:18:19.218Z,4.00
2018-05-03T19:20:47.108Z,1.90
2018-05-03T19:23:14.803Z,1.70
2018-05-03T19:25:42.571Z,1.47
2018-05-03T19:28:10.434Z,1.60
2018-05-03T19:30:38.151Z,1.87
2018-05-03T19:33:05.960Z,1.40
2018-05-03T19:35:33.652Z,1.43
2018-05-03T19:38:01.595Z,1.67
2018-05-03T19:40:29.461Z,1.40
2018-05-03T19:42:57.245Z,1.23
2018-05-03T19:45:24.989Z,1.13
2018-05-03T19:47:52.643Z,1.50
2018-05-03T19:50:20.253Z,1.20
2018-05-03T19:52:48.039Z,1.50
2018-05-03T19:55:15.915Z,1.40
2018-05-03T19:57:43.707Z,1.43
2018-05-03T20:00:11.439Z,1.47
2018-05-03T20:02:39.193Z,1.20
2018-05-03T20:05:06.903Z,2.00
2018-05-03T20:07:34.660Z,1.87
2018-05-03T20:10:02.530Z,1.33
2018-05-03T20:12:30.231Z,1.60
2018-05-03T20:14:58.059Z,1.13
2018-05-03T20:17:25.928Z,1.40
2018-05-03T20:19:53.867Z,1.30
2018-05-03T20:22:21.761Z,1.33
2018-05-03T20:24:49.540Z,1.67
2018-05-03T20:27:17.301Z,1.43
2018-05-03T20:29:45.237Z,1.40
2018-05-03T20:32:13.338Z,1.53
2018-05-03T20:34:41.287Z,1.50
2018-05-03T20:37:09.279Z,1.50
2018-05-03T20:39:37.297Z,1.60
2018-05-03T20:42:05.187Z,1.43
2018-05-03T20:44:33.082Z,1.27
2018-05-03T20:47:01.052Z,1.17
2018-05-03T20:49:29.091Z,1.33
2018-05-03T20:51:56.990Z,1.70
2018-05-03T20:54:24.949Z,1.63
2018-05-03T20:56:52.827Z,1.80
2018-05-03T20:59:20.692Z,1.80
2018-05-03T21:01:48.491Z,1.40
2018-05-03T21:04:16.429Z,1.70
2018-05-03T21:06:44.352Z,1.53
2018-05-03T21:09:12.263Z,1.70
2018-05-03T21:11:40.237Z,1.50
2018-05-03T21:14:08.207Z,1.40
2018-05-03T21:16:36.172Z,1.20
2018-05-03T21:19:04.038Z,1.37
2018-05-03T21:21:31.904Z,1.80
2018-05-03T21:23:59.773Z,1.70
2018-05-03T21:26:27.682Z,1.30
2018-05-03T21:28:55.498Z,1.37
2018-05-03T21:31:23.263Z,1.30
2018-05-03T21:33:50.981Z,1.10
2018-05-03T21:36:18.746Z,1.30
2018-05-03T21:38:46.457Z,1.20
2018-05-03T21:41:14.219Z,1.40
2018-05-03T21:43:42.086Z,1.27
2018-05-03T21:46:09.853Z,1.50
2018-05-03T21:48:37.818Z,1.17
2018-05-03T21:51:05.649Z,1.60
2018-05-03T21:53:33.451Z,1.20
2018-05-03T21:56:01.180Z,1.50
2018-05-03T21:58:28.979Z,1.30
2018-05-03T22:00:56.841Z,1.67
2018-05-03T22:03:24.714Z,1.20
2018-05-03T22:05:52.369Z,2.20
2018-05-03T22:08:20.139Z,1.50
2018-05-03T22:10:47.977Z,1.60
2018-05-03T22:13:15.670Z,1.30
2018-05-03T22:15:43.387Z,1.43
2018-05-03T22:18:11.197Z,1.67
2018-05-03T22:20:38.847Z,1.53
2018-05-03T22:23:06.454Z,1.13
2018-05-03T22:25:34.179Z,1.40
2018-05-03T22:28:01.950Z,1.10
2018-05-03T22:30:29.816Z,1.20
2018-05-03T22:32:57.477Z,1.30
2018-05-03T22:35:25.345Z,1.90
2018-05-03T22:37:53.000Z,1.67
2018-05-03T22:40:20.874Z,1.53
2018-05-03T22:42:48.605Z,1.50
2018-05-03T22:45:16.402Z,1.67
2018-05-03T22:47:44.063Z,1.30
2018-05-03T22:50:11.822Z,1.40
2018-05-03T22:52:39.699Z,1.33
2018-05-03T22:55:07.665Z,1.50
2018-05-03T22:57:35.430Z,1.57
2018-05-03T23:00:03.188Z,1.40
2018-05-03T23:02:31.033Z,1.13
2018-05-03T23:04:59.033Z,1.50
2018-05-03T23:07:26.736Z,1.60
2018-05-03T23:09:54.478Z,1.20
2018-05-03T23:12:22.221Z,1.00
2018-05-03T23:14:49.985Z,1.00
2018-05-03T23:17:18.774Z,1.50
2018-05-03T23:19:46.539Z,1.33
2018-05-03T23:22:14.308Z,1.63
2018-05-03T23:24:42.026Z,1.37
2018-05-03T23:27:10.653Z,1.80
2018-05-03T23:29:38.310Z,1.40
2018-05-03T23:32:06.130Z,1.00
2018-05-03T23:34:33.942Z,1.50
2018-05-03T23:37:01.709Z,1.10
2018-05-03T23:39:29.474Z,1.80
2018-05-03T23:41:57.291Z,1.77
2018-05-03T23:44:25.105Z,1.30
2018-05-03T23:46:52.971Z,1.20
2018-05-03T23:49:20.737Z,1.40
2018-05-03T23:51:48.501Z,1.10
2018-05-03T23:54:16.267Z,1.30
2018-05-03T23:56:43.989Z,1.30
2018-05-03T23:59:11.795Z,1.63
